Time;durP1;ratioP1;P1;durP2;ratioP2;P2;SDS_P1;SDS_P2;PMS_P1;PMS_P2;Temp;Humidity;BMP_temperature;BMP_pressure;BME280_temperature;BME280_humidity;BME280_pressure;Samples;Min_cycle;Max_cycle;Signal;HPM_P1;HPM_P2
2022/10/08 00:01:10;;;;;;;20.58;10.43;;;16.00;99.90;;;;;;5089481;28;20476;-56
2022/10/08 00:03:39;;;;;;;19.27;10.63;;;15.90;99.90;;;;;;5088528;28;20405;-56
2022/10/08 00:06:11;;;;;;;18.95;10.95;;;14.20;99.90;;;;;;5092342;28;20421;-56
2022/10/08 00:08:38;;;;;;;20.20;11.07;;;15.80;99.90;;;;;;5092672;28;20390;-56
2022/10/08 00:11:07;;;;;;;17.58;10.10;;;15.70;99.90;;;;;;5093929;28;21142;-56
2022/10/08 00:13:41;;;;;;;19.15;10.18;;;15.80;99.90;;;;;;5092744;28;20419;-56
2022/10/08 00:16:12;;;;;;;17.50;10.43;;;15.80;99.90;;;;;;5093197;28;20381;-56
2022/10/08 00:18:39;;;;;;;16.45;10.18;;;15.70;99.90;;;;;;5092017;28;20445;-56
2022/10/08 00:21:13;;;;;;;19.70;11.25;;;15.80;99.90;;;;;;5093159;28;20489;-56
2022/10/08 00:23:43;;;;;;;17.65;10.00;;;15.80;99.90;;;;;;5092642;28;20382;-56
2022/10/08 00:26:10;;;;;;;17.73;10.20;;;15.70;99.90;;;;;;5092504;28;20417;-56
2022/10/08 00:28:37;;;;;;;18.50;11.00;;;15.80;99.90;;;;;;5092385;28;20536;-56
2022/10/08 00:31:11;;;;;;;17.10;9.93;;;15.80;99.90;;;;;;5074394;28;20414;-56
2022/10/08 00:33:37;;;;;;;17.58;9.52;;;15.80;99.90;;;;;;5092279;28;20393;-56
2022/10/08 00:36:05;;;;;;;16.48;9.88;;;15.80;99.90;;;;;;5091990;28;20393;-57
2022/10/08 00:38:31;;;;;;;23.05;10.52;;;15.80;99.90;;;;;;5076869;28;20414;-56
2022/10/08 00:40:58;;;;;;;21.75;10.73;;;15.70;99.90;;;;;;5087597;28;20833;-56
2022/10/08 00:43:38;;;;;;;17.77;10.07;;;15.80;99.90;;;;;;5081804;28;20459;-56
2022/10/08 00:46:05;;;;;;;17.42;9.98;;;15.70;99.90;;;;;;5072467;28;20415;-56
2022/10/08 00:48:31;;;;;;;15.63;9.63;;;15.80;98.90;;;;;;5071866;28;20382;-56
2022/10/08 00:50:56;;;;;;;16.53;9.83;;;15.70;90.00;;;;;;5082788;28;20390;-56
2022/10/08 00:53:22;;;;;;;18.80;10.30;;;15.60;79.20;;;;;;5092702;28;20778;-55
2022/10/08 00:55:48;;;;;;;18.23;10.27;;;15.50;99.90;;;;;;5091904;28;20404;-56
2022/10/08 00:58:20;;;;;;;16.52;9.90;;;15.50;99.90;;;;;;5092469;28;20410;-56
2022/10/08 01:00:47;;;;;;;18.48;10.40;;;15.50;99.90;;;;;;5091706;28;20404;-56
2022/10/08 01:03:13;;;;;;;23.55;10.68;;;15.50;99.90;;;;;;5092782;28;20385;-56
2022/10/08 01:05:54;;;;;;;19.42;10.82;;;15.50;99.90;;;;;;5091371;28;20386;-55
2022/10/08 01:08:42;;;;;;;19.38;10.98;;;15.40;99.90;;;;;;5092337;28;20389;-56
2022/10/08 01:11:20;;;;;;;17.27;10.80;;;15.40;99.90;;;;;;5091994;28;20390;-56
2022/10/08 01:13:57;;;;;;;17.10;9.98;;;15.30;99.90;;;;;;5091634;28;20404;-56
2022/10/08 01:16:38;;;;;;;18.52;9.90;;;15.30;99.90;;;;;;5091451;28;20394;-56
2022/10/08 01:19:40;;;;;;;15.30;10.10;;;15.40;99.90;;;;;;5091980;28;20374;-55
2022/10/08 01:22:24;;;;;;;16.35;9.90;;;15.50;99.90;;;;;;5092137;28;20375;-56
2022/10/08 01:27:41;;;;;;;16.65;9.40;;;15.40;99.90;;;;;;5091427;28;20380;-55
2022/10/08 01:30:13;;;;;;;15.00;9.75;;;15.40;99.90;;;;;;5091572;28;20447;-56
2022/10/08 01:32:56;;;;;;;18.65;9.63;;;15.50;99.90;;;;;;5090936;28;20409;-56
2022/10/08 01:35:33;;;;;;;17.00;9.75;;;15.50;99.90;;;;;;5091824;28;20895;-55
2022/10/08 01:38:03;;;;;;;17.80;10.00;;;15.50;99.90;;;;;;5091786;28;20412;-56
2022/10/08 01:40:34;;;;;;;17.23;10.15;;;15.60;99.90;;;;;;5090894;28;20470;-58
2022/10/08 01:43:02;;;;;;;21.25;10.15;;;15.60;99.90;;;;;;5073579;28;20867;-56
2022/10/08 01:45:36;;;;;;;16.02;10.27;;;15.60;99.90;;;;;;5091187;28;20431;-58
2022/10/08 01:48:07;;;;;;;14.48;8.75;;;15.50;99.90;;;;;;5091431;28;20461;-57
2022/10/08 01:50:42;;;;;;;17.05;9.70;;;15.70;99.90;;;;;;5090494;28;20536;-56
2022/10/08 01:53:11;;;;;;;15.83;9.47;;;15.70;99.90;;;;;;5091546;28;20382;-56
2022/10/08 01:55:46;;;;;;;16.25;9.05;;;15.70;94.60;;;;;;5090590;28;20393;-54
2022/10/08 01:58:30;;;;;;;16.02;9.18;;;15.60;99.90;;;;;;5091379;28;20402;-54
2022/10/08 02:01:04;;;;;;;16.40;9.60;;;15.70;99.90;;;;;;5073000;28;20708;-55
2022/10/08 02:03:29;;;;;;;15.90;8.85;;;15.60;99.90;;;;;;5087208;28;20504;-56
2022/10/08 02:05:56;;;;;;;16.25;9.55;;;15.70;99.90;;;;;;5087123;28;20382;-54
2022/10/08 02:08:23;;;;;;;16.33;9.52;;;15.50;99.90;;;;;;5090969;28;20393;-54
2022/10/08 02:10:50;;;;;;;17.43;9.77;;;15.50;99.90;;;;;;5090363;28;20370;-56
2022/10/08 02:13:16;;;;;;;19.88;9.80;;;15.50;99.90;;;;;;5091122;28;20413;-54
2022/10/08 02:16:01;;;;;;;16.83;9.57;;;15.50;99.90;;;;;;5089857;28;20405;-55
2022/10/08 02:18:39;;;;;;;18.95;10.00;;;15.50;99.90;;;;;;5090675;28;20410;-58
2022/10/08 02:21:15;;;;;;;15.38;9.20;;;15.60;99.90;;;;;;5090765;28;20489;-57
2022/10/08 02:23:48;;;;;;;15.02;9.20;;;15.70;99.90;;;;;;5090233;28;20462;-57
2022/10/08 02:26:19;;;;;;;17.60;9.53;;;15.90;99.90;;;;;;5091009;28;20382;-56
2022/10/08 02:29:05;;;;;;;14.95;8.55;;;15.80;53.80;;;;;;5088945;28;20401;-56
2022/10/08 02:31:36;;;;;;;16.75;9.07;;;15.70;97.20;;;;;;5089749;28;20438;-58
2022/10/08 02:34:31;;;;;;;17.23;9.65;;;15.70;99.90;;;;;;5090652;28;20425;-57
2022/10/08 02:37:08;;;;;;;17.27;9.63;;;15.60;93.00;;;;;;5090221;28;20976;-56
2022/10/08 02:39:39;;;;;;;15.35;9.20;;;15.70;92.30;;;;;;5081997;28;20926;-57
2022/10/08 02:42:10;;;;;;;13.73;8.20;;;15.70;76.90;;;;;;5072685;28;20375;-56
2022/10/08 02:44:46;;;;;;;16.55;8.60;;;15.70;47.60;;;;;;5069591;28;20387;-56
2022/10/08 02:47:16;;;;;;;16.83;9.20;;;15.40;99.90;;;;;;5070710;28;20380;-57
2022/10/08 02:49:49;;;;;;;19.15;9.38;;;15.30;99.90;;;;;;5069534;28;20376;-54
2022/10/08 02:52:17;;;;;;;17.08;9.55;;;15.30;99.90;;;;;;5070168;28;20768;-56
2022/10/08 02:54:45;;;;;;;14.57;9.25;;;15.60;99.90;;;;;;5080051;28;20397;-56
2022/10/08 02:57:26;;;;;;;13.38;8.55;;;15.70;95.30;;;;;;5090169;28;20419;-57
2022/10/08 02:59:52;;;;;;;17.40;8.90;;;15.80;71.80;;;;;;5089377;28;21128;-56
2022/10/08 03:02:36;;;;;;;14.80;8.70;;;15.80;47.40;;;;;;5090235;28;20394;-56
2022/10/08 03:05:05;;;;;;;14.07;8.98;;;15.80;48.20;;;;;;5089864;28;20375;-56
2022/10/08 03:07:32;;;;;;;13.47;8.30;;;15.80;38.30;;;;;;5082636;28;20863;-58
2022/10/08 03:10:02;;;;;;;15.35;8.77;;;15.70;47.10;;;;;;5076170;28;20406;-56
2022/10/08 03:12:29;;;;;;;15.45;8.50;;;15.70;43.20;;;;;;5069890;28;20399;-57
2022/10/08 03:14:54;;;;;;;19.05;9.00;;;15.70;50.90;;;;;;5069388;28;20876;-57
2022/10/08 03:17:26;;;;;;;15.30;8.27;;;15.70;60.60;;;;;;5075129;28;20512;-56
2022/10/08 03:19:53;;;;;;;15.88;8.88;;;15.70;99.90;;;;;;5089342;28;20463;-56
2022/10/08 03:22:19;;;;;;;17.63;8.75;;;15.70;89.80;;;;;;5089991;28;20374;-56
2022/10/08 03:24:44;;;;;;;14.80;8.67;;;15.70;86.30;;;;;;5089355;28;20374;-56
2022/10/08 03:27:10;;;;;;;16.30;8.70;;;15.60;95.30;;;;;;5089387;28;20739;-56
2022/10/08 03:29:36;;;;;;;17.50;9.45;;;15.60;99.90;;;;;;5089073;28;20425;-56
2022/10/08 03:32:01;;;;;;;15.57;9.60;;;15.60;99.90;;;;;;5089569;28;20390;-56
2022/10/08 03:34:27;;;;;;;17.40;8.80;;;15.60;99.90;;;;;;5089836;28;20397;-56
2022/10/08 03:36:52;;;;;;;18.40;9.23;;;15.60;99.90;;;;;;5088029;28;20414;-57
2022/10/08 03:39:18;;;;;;;15.63;9.20;;;15.60;99.90;;;;;;5081508;28;20384;-56
2022/10/08 03:41:44;;;;;;;15.02;9.35;;;15.70;99.90;;;;;;5077779;28;21139;-56
2022/10/08 03:44:11;;;;;;;18.93;9.80;;;15.80;87.20;;;;;;5096472;28;20378;-56
2022/10/08 03:46:37;;;;;;;16.58;10.15;;;15.70;65.60;;;;;;5095294;28;20397;-56
2022/10/08 03:49:03;;;;;;;15.77;9.90;;;15.70;81.70;;;;;;5096474;28;20701;-56
2022/10/08 03:51:28;;;;;;;15.75;9.50;;;15.70;76.50;;;;;;5095711;28;20385;-58
2022/10/08 03:53:54;;;;;;;15.57;8.73;;;15.70;75.40;;;;;;5095615;28;20373;-56
2022/10/08 03:56:24;;;;;;;17.13;9.90;;;15.60;66.70;;;;;;5077835;28;20386;-56
2022/10/08 03:58:58;;;;;;;19.55;9.35;;;15.30;99.90;;;;;;5095600;28;20382;-54
2022/10/08 04:01:25;;;;;;;18.25;9.75;;;15.10;99.90;;;;;;5096030;28;20392;-54
2022/10/08 04:03:51;;;;;;;14.43;9.37;;;14.90;99.90;;;;;;5095522;28;20410;-54
2022/10/08 04:06:17;;;;;;;15.83;9.77;;;15.00;99.90;;;;;;5095887;28;20415;-54
2022/10/08 04:08:43;;;;;;;15.52;9.43;;;15.10;99.90;;;;;;5095508;28;20390;-54
2022/10/08 04:11:11;;;;;;;17.03;9.60;;;15.20;99.90;;;;;;5095656;28;20415;-54
2022/10/08 04:13:38;;;;;;;19.60;10.30;;;15.30;99.90;;;;;;5095399;28;20402;-54
2022/10/08 04:16:15;;;;;;;17.90;10.80;;;15.30;99.90;;;;;;5095863;28;20374;-55
2022/10/08 04:18:42;;;;;;;18.20;10.50;;;15.20;99.90;;;;;;5095271;28;20736;-54
2022/10/08 04:21:11;;;;;;;22.50;12.38;;;15.30;99.90;;;;;;5095586;28;20446;-54
2022/10/08 04:23:38;;;;;;;21.50;10.43;;;15.20;99.90;;;;;;5095187;28;20473;-54
2022/10/08 04:26:05;;;;;;;20.17;10.80;;;15.20;99.90;;;;;;5096067;28;20388;-54
2022/10/08 04:28:31;;;;;;;17.98;10.90;;;15.10;99.90;;;;;;5095575;28;20687;-55
2022/10/08 04:31:00;;;;;;;19.00;10.25;;;15.00;99.90;;;;;;5095179;28;20478;-54
2022/10/08 04:33:27;;;;;;;17.35;10.48;;;15.00;99.90;;;;;;5095828;28;20402;-53
2022/10/08 04:35:54;;;;;;;17.93;10.67;;;15.00;99.90;;;;;;5095149;28;20870;-53
2022/10/08 04:38:19;;;;;;;19.35;10.70;;;15.10;99.90;;;;;;5095517;28;20401;-54
2022/10/08 04:40:45;;;;;;;21.27;11.05;;;15.10;99.90;;;;;;5095194;28;20382;-53
2022/10/08 04:43:11;;;;;;;19.25;11.07;;;15.10;99.90;;;;;;5095594;28;20396;-53
2022/10/08 04:45:44;;;;;;;18.67;9.60;;;15.10;99.90;;;;;;5095114;28;20386;-53
2022/10/08 04:48:11;;;;;;;16.90;10.07;;;15.10;99.90;;;;;;5095738;28;20415;-54
2022/10/08 04:50:37;;;;;;;18.83;10.90;;;15.20;99.90;;;;;;5092703;28;20863;-53
2022/10/08 04:53:03;;;;;;;21.70;10.63;;;15.20;99.90;;;;;;5092582;28;20393;-56
2022/10/08 04:55:29;;;;;;;21.67;10.85;;;15.20;99.90;;;;;;5092583;28;20375;-56
2022/10/08 04:57:54;;;;;;;18.83;10.70;;;15.20;99.90;;;;;;5091542;28;20435;-56
2022/10/08 05:00:20;;;;;;;21.70;11.93;;;15.20;99.90;;;;;;5092547;28;20434;-56
2022/10/08 05:02:46;;;;;;;21.23;10.32;;;15.20;99.90;;;;;;5091670;28;20386;-56
2022/10/08 05:05:11;;;;;;;21.40;10.13;;;15.20;99.90;;;;;;5092341;28;20412;-56
2022/10/08 05:07:37;;;;;;;20.60;10.23;;;15.20;99.90;;;;;;5091723;28;20454;-56
2022/10/08 05:10:03;;;;;;;20.42;9.90;;;15.20;99.90;;;;;;5092480;28;20847;-56
2022/10/08 05:12:28;;;;;;;23.08;11.00;;;15.20;99.90;;;;;;5091757;28;20398;-56
2022/10/08 05:14:54;;;;;;;18.40;9.90;;;15.20;99.90;;;;;;5091480;28;20398;-54
2022/10/08 05:17:19;;;;;;;19.15;10.00;;;15.20;99.90;;;;;;5091382;28;20402;-56
2022/10/08 05:19:45;;;;;;;18.50;10.30;;;15.30;99.90;;;;;;5091146;28;20382;-54
2022/10/08 05:22:10;;;;;;;19.43;10.57;;;15.20;99.90;;;;;;5092011;28;20472;-54
2022/10/08 05:24:36;;;;;;;22.20;10.20;;;15.00;99.90;;;;;;5090781;28;20867;-54
2022/10/08 05:27:01;;;;;;;20.63;10.47;;;14.90;99.90;;;;;;5088983;28;20448;-54
2022/10/08 05:29:29;;;;;;;19.42;10.25;;;14.90;99.90;;;;;;5091601;28;20425;-54
2022/10/08 05:31:55;;;;;;;18.85;9.88;;;14.80;99.90;;;;;;5090547;28;20429;-54
2022/10/08 05:34:20;;;;;;;19.83;10.02;;;14.80;99.90;;;;;;5087463;28;20450;-54
2022/10/08 05:36:46;;;;;;;20.00;10.52;;;14.80;99.90;;;;;;5087590;28;20442;-54
2022/10/08 05:39:12;;;;;;;21.58;10.85;;;14.70;99.90;;;;;;5091003;28;20451;-54
2022/10/08 05:41:37;;;;;;;18.67;9.97;;;14.60;99.90;;;;;;5090410;28;20385;-54
2022/10/08 05:44:04;;;;;;;21.20;10.10;;;14.60;99.90;;;;;;5087925;28;20921;-54
2022/10/08 05:46:32;;;;;;;18.73;9.50;;;14.50;99.90;;;;;;5086931;28;20418;-54
2022/10/08 05:49:00;;;;;;;21.73;10.90;;;14.60;99.90;;;;;;5090371;28;20414;-54
2022/10/08 05:51:26;;;;;;;18.83;10.02;;;14.60;99.90;;;;;;5090902;28;20389;-54
2022/10/08 05:53:55;;;;;;;20.13;10.40;;;14.60;99.90;;;;;;5090417;28;20420;-54
2022/10/08 05:56:22;;;;;;;26.42;11.30;;;14.70;99.90;;;;;;5089520;28;20394;-54
2022/10/08 05:58:49;;;;;;;22.35;11.05;;;14.60;99.90;;;;;;5087790;28;20805;-54
2022/10/08 06:01:19;;;;;;;20.50;11.15;;;14.50;99.90;;;;;;5091002;28;20386;-55
2022/10/08 06:03:51;;;;;;;19.30;10.63;;;14.60;99.90;;;;;;5083287;28;20428;-54
2022/10/08 06:06:17;;;;;;;20.40;12.00;;;14.50;99.90;;;;;;5085468;28;20500;-54
2022/10/08 06:08:43;;;;;;;17.98;10.70;;;14.40;99.90;;;;;;5090046;28;20946;-54
2022/10/08 06:11:08;;;;;;;22.47;11.83;;;14.50;99.90;;;;;;5091061;28;20431;-54
2022/10/08 06:13:34;;;;;;;18.35;10.02;;;14.60;99.90;;;;;;5090659;28;20866;-56
2022/10/08 06:16:08;;;;;;;21.90;10.18;;;14.70;99.90;;;;;;5090745;28;20822;-54
2022/10/08 06:18:36;;;;;;;20.52;10.90;;;14.70;99.90;;;;;;5089961;28;20409;-57
2022/10/08 06:21:17;;;;;;;20.40;9.52;;;14.90;99.90;;;;;;5089568;28;20408;-54
2022/10/08 06:23:48;;;;;;;19.83;9.20;;;15.00;99.90;;;;;;5089611;28;20958;-54
2022/10/08 06:26:16;;;;;;;22.05;10.07;;;15.10;99.90;;;;;;5089593;28;20616;-54
2022/10/08 06:28:42;;;;;;;16.40;9.27;;;15.20;99.90;;;;;;5089787;28;20408;-54
2022/10/08 06:31:08;;;;;;;19.63;10.40;;;15.40;99.90;;;;;;5088787;28;20448;-54
2022/10/08 06:33:34;;;;;;;16.65;9.10;;;15.50;99.90;;;;;;5087183;28;20410;-56
2022/10/08 06:36:16;;;;;;;18.50;8.73;;;15.60;99.90;;;;;;5089245;28;20392;-54
2022/10/08 06:38:47;;;;;;;18.00;9.10;;;15.70;99.90;;;;;;5072915;28;20409;-55
2022/10/08 06:41:12;;;;;;;17.35;8.82;;;16.20;99.90;;;;;;5088327;28;20375;-55
2022/10/08 06:43:38;;;;;;;14.23;7.50;;;16.50;7.80;;;;;;5087935;28;20455;-55
2022/10/08 06:46:04;;;;;;;17.43;8.20;;;16.80;1.00;;;;;;5089641;28;20385;-55
2022/10/08 06:48:30;;;;;;;15.30;8.20;;;17.10;1.00;;;;;;5090182;28;20545;-55
2022/10/08 06:51:04;;;;;;;14.48;7.30;;;17.30;1.00;;;;;;5088731;28;20476;-55
2022/10/08 06:53:30;;;;;;;13.07;7.00;;;17.60;1.00;;;;;;5089436;28;20401;-57
2022/10/08 06:56:04;;;;;;;14.65;7.13;;;17.80;99.90;;;;;;5089499;28;20374;-57
2022/10/08 06:58:29;;;;;;;14.85;6.57;;;18.10;99.90;;;;;;5089733;28;20401;-57
2022/10/08 07:01:17;;;;;;;13.27;6.80;;;18.60;99.90;;;;;;5084347;28;20459;-57
2022/10/08 07:03:47;;;;;;;16.45;6.80;;;18.70;1.00;;;;;;5053603;28;20809;-57
2022/10/08 07:06:12;;;;;;;16.85;6.45;;;19.20;1.00;;;;;;5076710;28;20902;-57
2022/10/08 07:08:38;;;;;;;14.07;7.30;;;19.70;1.00;;;;;;5088949;28;20383;-57
2022/10/08 07:11:14;;;;;;;15.13;6.70;;;19.70;20.60;;;;;;5089804;28;20541;-56
2022/10/08 07:13:39;;;;;;;14.40;6.90;;;19.90;1.00;;;;;;5088739;28;20386;-59
2022/10/08 07:16:09;;;;;;;13.60;6.00;;;20.40;99.90;;;;;;5090012;28;20450;-57
2022/10/08 07:18:36;;;;;;;12.35;5.40;;;20.90;99.90;;;;;;5089353;28;20493;-59
2022/10/08 07:21:03;;;;;;;12.32;5.60;;;21.50;99.90;;;;;;5079177;28;20396;-57
2022/10/08 07:23:29;;;;;;;11.45;5.30;;;21.40;99.90;;;;;;5073753;28;20437;-57
2022/10/08 07:25:58;;;;;;;10.85;5.10;;;21.40;1.00;;;;;;5086056;28;20481;-57
2022/10/08 07:28:28;;;;;;;12.13;5.00;;;21.00;1.00;;;;;;5089431;28;20381;-57
2022/10/08 07:30:53;;;;;;;12.02;5.13;;;21.20;1.00;;;;;;5077983;28;20428;-57
2022/10/08 07:33:19;;;;;;;13.27;5.23;;;21.80;1.00;;;;;;5068619;28;20781;-57
2022/10/08 07:35:46;;;;;;;10.13;3.90;;;21.80;1.00;;;;;;5086165;28;20938;-57
2022/10/08 07:38:11;;;;;;;11.10;3.97;;;21.10;1.00;;;;;;5088485;28;20406;-57
2022/10/08 07:40:37;;;;;;;14.35;4.28;;;20.60;1.00;;;;;;5088414;28;20511;-59
2022/10/08 07:43:03;;;;;;;13.30;3.60;;;20.50;1.00;;;;;;5080240;28;20478;-57
2022/10/08 07:45:30;;;;;;;11.05;3.50;;;20.90;1.00;;;;;;5081391;28;20417;-57
2022/10/08 07:47:56;;;;;;;8.60;2.80;;;20.90;1.00;;;;;;5078690;28;20377;-56
2022/10/08 07:50:23;;;;;;;11.13;2.97;;;;;;;;;;5082810;28;20457;-57
2022/10/08 07:52:49;;;;;;;11.35;3.10;;;22.10;1.00;;;;;;5087400;28;20874;-55
2022/10/08 07:55:14;;;;;;;12.00;3.30;;;21.40;99.90;;;;;;5084582;28;20480;-55
2022/10/08 07:57:40;;;;;;;12.77;2.55;;;21.10;99.90;;;;;;5080717;28;20408;-56
2022/10/08 08:00:07;;;;;;;9.45;2.60;;;21.10;99.90;;;;;;5081884;28;20415;-55
2022/10/08 08:02:32;;;;;;;10.23;2.83;;;21.10;99.90;;;;;;5085607;28;20504;-56
2022/10/08 08:04:58;;;;;;;10.20;2.67;;;20.90;99.90;;;;;;5079297;28;20493;-56
2022/10/08 08:07:24;;;;;;;10.05;3.20;;;21.60;99.90;;;;;;5083555;28;20384;-56
2022/10/08 08:09:50;;;;;;;9.88;2.45;;;21.30;99.90;;;;;;5087990;28;20413;-56
2022/10/08 08:12:15;;;;;;;11.00;3.00;;;20.60;99.90;;;;;;5088826;28;20773;-56
2022/10/08 08:14:41;;;;;;;12.00;3.10;;;20.10;99.90;;;;;;5085650;28;20488;-56
2022/10/08 08:17:06;;;;;;;11.90;2.90;;;20.40;99.90;;;;;;5084260;28;21114;-56
2022/10/08 08:19:32;;;;;;;10.98;2.55;;;20.70;99.90;;;;;;5085811;28;20396;-57
2022/10/08 08:21:58;;;;;;;8.63;2.78;;;20.80;99.90;;;;;;5085877;28;21212;-56
2022/10/08 08:24:23;;;;;;;9.50;2.50;;;20.40;99.90;;;;;;5083846;28;20473;-56
2022/10/08 08:26:49;;;;;;;9.60;2.53;;;20.50;99.90;;;;;;5089853;28;20389;-57
2022/10/08 08:29:18;;;;;;;10.80;2.65;;;21.30;99.90;;;;;;5091448;28;20418;-57
2022/10/08 08:31:46;;;;;;;9.80;2.85;;;21.70;99.90;;;;;;5091681;28;20404;-57
2022/10/08 08:34:20;;;;;;;14.13;3.38;;;22.00;99.90;;;;;;5092478;28;20404;-57
2022/10/08 08:36:48;;;;;;;9.52;3.03;;;22.00;99.90;;;;;;5091624;28;20485;-57
2022/10/08 08:39:17;;;;;;;11.85;3.15;;;22.70;99.90;;;;;;5091010;28;20400;-57
2022/10/08 08:42:04;;;;;;;13.20;3.00;;;23.00;99.90;;;;;;5089177;28;20406;-57
2022/10/08 08:44:32;;;;;;;9.50;2.70;;;23.30;99.90;;;;;;5089142;28;20382;-57
2022/10/08 08:47:11;;;;;;;14.43;2.88;;;22.70;99.90;;;;;;5091587;28;20993;-56
2022/10/08 08:49:47;;;;;;;12.05;2.95;;;22.30;99.90;;;;;;5089848;28;20400;-57
2022/10/08 08:52:16;;;;;;;7.82;2.10;;;22.40;99.90;;;;;;5086119;28;20394;-57
2022/10/08 08:54:48;;;;;;;8.05;2.85;;;22.40;99.90;;;;;;5087890;28;20374;-57
2022/10/08 08:57:31;;;;;;;8.93;2.08;;;22.40;99.90;;;;;;5091944;28;20432;-57
2022/10/08 09:00:14;;;;;;;11.48;2.67;;;22.40;99.90;;;;;;5090600;28;20600;-57
2022/10/08 09:02:58;;;;;;;11.27;2.67;;;22.50;99.90;;;;;;5087576;28;20793;-57
2022/10/08 09:05:27;;;;;;;9.80;2.10;;;22.80;99.90;;;;;;5089799;28;20457;-58
2022/10/08 09:08:15;;;;;;;7.68;2.40;;;23.40;99.90;;;;;;5091373;28;20386;-57
2022/10/08 09:10:57;;;;;;;9.15;2.30;;;24.00;99.90;;;;;;5088188;28;20397;-57
2022/10/08 09:13:38;;;;;;;8.90;2.60;;;23.60;99.90;;;;;;5089473;28;20390;-57
2022/10/08 09:16:04;;;;;;;9.18;3.38;;;24.00;99.90;;;;;;5091578;28;20745;-57
2022/10/08 09:18:31;;;;;;;15.57;6.05;;;24.10;99.90;;;;;;5091843;28;20443;-57
2022/10/08 09:20:57;;;;;;;9.48;2.05;;;25.00;99.90;;;;;;5090628;28;20396;-56
2022/10/08 09:23:25;;;;;;;13.67;2.33;;;24.60;99.90;;;;;;5091411;28;20688;-56
2022/10/08 09:26:08;;;;;;;8.48;2.50;;;23.90;99.90;;;;;;5089061;28;20941;-57
2022/10/08 09:28:51;;;;;;;7.97;1.90;;;24.10;99.90;;;;;;5090630;28;20452;-55
2022/10/08 09:31:38;;;;;;;10.82;2.33;;;24.30;99.90;;;;;;5086182;28;20433;-57
2022/10/08 09:34:10;;;;;;;12.23;3.00;;;23.60;99.90;;;;;;5088609;28;20759;-57
2022/10/08 09:36:49;;;;;;;8.13;2.67;;;23.20;99.90;;;;;;5089088;28;20747;-58
2022/10/08 09:39:20;;;;;;;7.28;2.53;;;24.00;99.90;;;;;;5073267;28;20449;-56
2022/10/08 09:42:05;;;;;;;9.20;2.30;;;24.20;99.90;;;;;;5088425;28;20386;-57
2022/10/08 09:44:46;;;;;;;10.00;2.22;;;24.20;99.90;;;;;;5088736;28;20464;-57
2022/10/08 09:47:17;;;;;;;7.22;2.63;;;24.10;99.90;;;;;;5087955;28;20398;-57
2022/10/08 09:49:48;;;;;;;9.57;2.33;;;24.30;99.90;;;;;;5084880;28;20459;-57
2022/10/08 09:52:19;;;;;;;10.20;2.60;;;24.30;99.90;;;;;;5086259;28;20879;-57
2022/10/08 09:54:53;;;;;;;9.25;2.50;;;24.50;99.90;;;;;;5087191;28;20402;-58
2022/10/08 09:57:20;;;;;;;10.90;2.20;;;25.70;99.90;;;;;;5090979;28;20398;-57
2022/10/08 09:59:56;;;;;;;11.93;2.00;;;25.40;99.90;;;;;;5089743;28;20383;-57
2022/10/08 10:02:34;;;;;;;10.77;2.15;;;24.90;99.90;;;;;;5088407;28;20382;-57
2022/10/08 10:05:03;;;;;;;10.43;2.38;;;23.10;99.90;;;;;;5081302;28;20402;-57
2022/10/08 10:07:41;;;;;;;10.07;2.10;;;22.40;99.90;;;;;;5086667;28;20410;-56
2022/10/08 10:10:17;;;;;;;8.73;1.80;;;22.20;99.90;;;;;;5087733;28;20390;-57
2022/10/08 10:12:47;;;;;;;11.25;2.10;;;22.80;99.90;;;;;;5089658;28;20371;-57
2022/10/08 10:15:38;;;;;;;10.07;2.00;;;23.70;99.90;;;;;;5085815;28;20388;-57
2022/10/08 10:18:11;;;;;;;7.75;2.17;;;23.80;99.90;;;;;;5087170;28;20446;-57
2022/10/08 10:20:45;;;;;;;10.57;1.90;;;24.00;99.90;;;;;;5089180;28;20426;-56
2022/10/08 10:23:21;;;;;;;10.20;2.00;;;22.90;99.90;;;;;;5084691;28;20537;-57
2022/10/08 10:25:48;;;;;;;8.52;2.20;;;23.40;99.90;;;;;;5084208;28;20758;-57
2022/10/08 10:28:27;;;;;;;10.60;2.13;;;24.00;99.90;;;;;;5067312;28;20398;-57
2022/10/08 10:31:06;;;;;;;7.40;1.80;;;24.00;99.90;;;;;;5086484;28;20418;-57
2022/10/08 10:33:36;;;;;;;9.50;1.67;;;23.80;99.90;;;;;;5090345;28;20432;-57
2022/10/08 10:36:08;;;;;;;10.82;2.00;;;24.00;99.90;;;;;;5089941;28;20907;-56
2022/10/08 10:38:42;;;;;;;8.88;1.80;;;24.10;99.90;;;;;;5090202;28;20410;-57
2022/10/08 10:41:25;;;;;;;8.45;2.15;;;23.40;99.90;;;;;;5090352;28;20382;-57
2022/10/08 10:43:59;;;;;;;8.18;1.90;;;22.90;99.90;;;;;;5089496;28;20390;-57
2022/10/08 10:46:36;;;;;;;9.13;1.92;;;23.00;99.90;;;;;;5102436;28;20447;-56
2022/10/08 10:49:01;;;;;;;9.37;2.07;;;22.80;99.90;;;;;;5078404;28;20393;-57
2022/10/08 10:51:30;;;;;;;9.73;2.30;;;22.30;99.90;;;;;;5089945;28;20386;-57
2022/10/08 10:54:02;;;;;;;10.60;2.20;;;22.10;99.90;;;;;;5089368;28;20382;-57
2022/10/08 10:56:35;;;;;;;8.80;1.92;;;22.00;99.90;;;;;;5089800;28;20402;-56
2022/10/08 10:59:33;;;;;;;7.75;1.90;;;21.20;99.90;;;;;;5071004;28;20398;-57
2022/10/08 11:02:21;;;;;;;8.68;1.90;;;21.40;99.90;;;;;;5078908;28;20409;-56
2022/10/08 11:05:06;;;;;;;7.35;2.15;;;21.70;99.90;;;;;;5088543;28;20406;-57
2022/10/08 11:07:46;;;;;;;8.77;1.60;;;21.70;99.90;;;;;;5069867;28;20406;-56
2022/10/08 11:10:32;;;;;;;7.35;1.35;;;22.00;99.90;;;;;;5082193;28;20879;-56
2022/10/08 11:13:04;;;;;;;8.32;1.80;;;22.10;99.90;;;;;;5089149;28;20408;-57
2022/10/08 11:15:48;;;;;;;8.20;2.10;;;22.30;99.90;;;;;;5089832;28;20396;-57
2022/10/08 11:18:35;;;;;;;7.72;1.77;;;21.80;99.90;;;;;;5089676;28;20402;-56
2022/10/08 11:21:11;;;;;;;8.35;1.70;;;21.10;99.90;;;;;;5086450;28;20503;-56
2022/10/08 11:23:46;;;;;;;7.30;2.10;;;21.10;99.90;;;;;;5085816;28;20410;-56
2022/10/08 11:26:42;;;;;;;8.77;1.98;;;21.20;99.90;;;;;;5086105;28;20465;-56
2022/10/08 11:29:23;;;;;;;9.00;1.40;;;21.20;99.90;;;;;;5088787;28;20390;-56
2022/10/08 11:31:51;;;;;;;7.07;1.50;;;20.30;99.90;;;;;;5065840;28;20864;-56
2022/10/08 11:34:37;;;;;;;9.25;1.52;;;20.10;99.90;;;;;;5087572;28;20401;-56
2022/10/08 11:37:10;;;;;;;8.82;1.60;;;19.90;99.90;;;;;;5088688;28;20428;-56
2022/10/08 11:40:13;;;;;;;8.75;1.50;;;19.90;99.90;;;;;;5089044;28;20386;-56
2022/10/08 11:43:03;;;;;;;6.77;1.30;;;19.90;99.90;;;;;;5085550;28;20382;-57
2022/10/08 11:45:34;;;;;;;7.78;1.60;;;19.90;99.90;;;;;;5087850;28;20719;-55
2022/10/08 11:48:21;;;;;;;9.00;1.73;;;20.10;99.90;;;;;;5085295;28;21021;-56
2022/10/08 11:50:47;;;;;;;7.70;1.80;;;20.10;99.90;;;;;;5084625;28;20822;-56
2022/10/08 11:53:21;;;;;;;8.68;2.00;;;20.30;99.90;;;;;;5080844;28;20426;-57
2022/10/08 11:55:58;;;;;;;8.40;1.50;;;20.60;99.90;;;;;;5086182;28;20402;-57
2022/10/08 11:58:30;;;;;;;7.70;1.70;;;20.20;99.90;;;;;;5088285;28;20483;-57
2022/10/08 12:01:05;;;;;;;9.68;2.00;;;20.10;99.90;;;;;;5086381;28;20413;-56
2022/10/08 12:03:35;;;;;;;12.70;2.40;;;19.60;99.90;;;;;;5091546;28;20404;-57
2022/10/08 12:06:15;;;;;;;13.15;2.63;;;19.60;99.90;;;;;;5074139;28;21345;-56
2022/10/08 12:08:57;;;;;;;12.07;3.83;;;20.10;99.90;;;;;;5090128;28;20465;-59
2022/10/08 12:11:46;;;;;;;8.60;2.10;;;20.50;99.90;;;;;;5091061;28;20866;-56
2022/10/08 12:16:47;;;;;;;11.00;1.98;;;20.60;99.90;;;;;;5091014;28;20382;-58
2022/10/08 12:19:32;;;;;;;10.43;2.80;;;20.80;99.90;;;;;;5089147;28;20451;-59
2022/10/08 12:22:16;;;;;;;8.30;1.87;;;21.20;99.90;;;;;;5090957;28;20914;-56
2022/10/08 12:24:47;;;;;;;8.60;1.60;;;21.60;99.90;;;;;;5090703;28;20386;-58
2022/10/08 12:27:16;;;;;;;7.03;1.75;;;21.60;99.90;;;;;;5091414;28;20386;-56
2022/10/08 12:29:53;;;;;;;6.43;1.33;;;21.60;99.90;;;;;;5091587;28;20393;-59
2022/10/08 12:32:20;;;;;;;11.40;1.88;;;21.20;99.90;;;;;;5094078;28;20413;-56
2022/10/08 12:34:45;;;;;;;7.32;1.70;;;21.00;99.90;;;;;;5090271;28;20742;-56
2022/10/08 12:37:29;;;;;;;6.80;1.70;;;21.10;99.90;;;;;;5088511;28;20424;-56
2022/10/08 12:39:55;;;;;;;5.88;1.10;;;21.10;99.90;;;;;;5088817;28;20382;-56
2022/10/08 12:42:26;;;;;;;7.15;1.50;;;21.30;99.90;;;;;;5092337;28;20382;-56
2022/10/08 12:45:18;;;;;;;7.75;2.00;;;21.10;99.90;;;;;;5086702;28;20436;-56
2022/10/08 12:47:52;;;;;;;6.57;1.58;;;20.80;99.90;;;;;;5090073;28;20409;-56
2022/10/08 12:50:37;;;;;;;6.13;1.40;;;20.70;99.90;;;;;;5092264;28;20424;-56
2022/10/08 12:53:05;;;;;;;5.80;1.30;;;20.20;99.90;;;;;;5089964;28;20418;-55
2022/10/08 12:55:44;;;;;;;5.38;1.13;;;20.20;99.90;;;;;;5091789;28;20394;-56
2022/10/08 12:58:17;;;;;;;5.60;1.30;;;20.20;99.90;;;;;;5086517;28;20526;-56
2022/10/08 13:00:48;;;;;;;5.50;1.30;;;20.30;99.90;;;;;;5100536;28;20393;-57
2022/10/08 13:03:20;;;;;;;8.30;1.75;;;20.30;99.90;;;;;;5090692;28;20382;-55
2022/10/08 13:05:47;;;;;;;6.78;1.50;;;19.90;99.90;;;;;;5091481;28;20378;-56